createdAt,value
2019-02-14T00:02:04.415Z,0.70
2019-02-14T00:04:30.427Z,0.60
2019-02-14T00:06:56.433Z,0.60
2019-02-14T00:09:22.466Z,0.50
2019-02-14T00:11:48.466Z,0.50
2019-02-14T00:14:14.492Z,0.50
2019-02-14T00:16:40.495Z,0.60
2019-02-14T00:19:06.769Z,0.60
2019-02-14T00:21:33.014Z,0.60
2019-02-14T00:23:59.267Z,0.50
2019-02-14T00:26:25.528Z,0.50
2019-02-14T00:28:51.804Z,0.50
2019-02-14T00:31:17.826Z,0.60
2019-02-14T00:33:43.859Z,0.60
2019-02-14T00:36:09.863Z,0.50
2019-02-14T00:38:35.893Z,0.50
2019-02-14T00:41:02.165Z,0.40
2019-02-14T00:43:28.282Z,0.40
2019-02-14T00:45:54.552Z,0.40
2019-02-14T00:48:20.571Z,0.50
2019-02-14T00:50:46.859Z,0.50
2019-02-14T00:53:12.947Z,0.50
2019-02-14T00:55:38.974Z,0.50
2019-02-14T00:58:04.991Z,0.50
2019-02-14T01:00:31.014Z,0.50
2019-02-14T01:02:57.019Z,0.50
2019-02-14T01:05:23.384Z,0.40
2019-02-14T01:07:49.621Z,0.40
2019-02-14T01:10:15.651Z,0.40
2019-02-14T01:12:41.662Z,0.30
2019-02-14T01:15:08.907Z,0.40
2019-02-14T01:17:34.906Z,0.40
2019-02-14T01:20:00.908Z,0.30
2019-02-14T01:22:27.165Z,0.30
2019-02-14T01:24:53.165Z,0.30
2019-02-14T01:27:19.178Z,0.30
2019-02-14T01:29:45.183Z,0.40
2019-02-14T01:32:11.502Z,0.40
2019-02-14T01:34:37.511Z,0.30
2019-02-14T01:37:03.543Z,0.30
2019-02-14T01:39:29.550Z,0.40
2019-02-14T01:41:55.801Z,0.40
2019-02-14T01:44:21.818Z,0.50
2019-02-14T01:46:47.866Z,0.50
2019-02-14T01:49:13.882Z,0.60
2019-02-14T01:51:39.914Z,0.60
2019-02-14T01:54:05.910Z,0.60
2019-02-14T01:56:32.163Z,0.60
2019-02-14T01:58:58.164Z,0.60
2019-02-14T02:01:24.205Z,0.70
2019-02-14T02:03:50.226Z,0.60
2019-02-14T02:06:16.234Z,0.70
2019-02-14T02:08:42.486Z,0.60
2019-02-14T02:11:08.500Z,0.60
2019-02-14T02:13:34.507Z,0.50
2019-02-14T02:16:00.526Z,0.50
2019-02-14T02:18:26.658Z,0.50
2019-02-14T02:20:52.768Z,0.50
2019-02-14T02:23:18.794Z,0.60
2019-02-14T02:25:44.811Z,0.60
2019-02-14T02:28:11.146Z,0.60
2019-02-14T02:30:37.407Z,0.60
2019-02-14T02:33:03.425Z,0.70
2019-02-14T02:35:29.537Z,0.70
2019-02-14T02:37:55.770Z,0.60
2019-02-14T02:40:21.815Z,0.50
2019-02-14T02:42:47.815Z,0.40
2019-02-14T02:45:13.842Z,0.30
2019-02-14T02:47:39.864Z,0.40
2019-02-14T02:50:10.815Z,0.40
2019-02-14T02:52:36.848Z,0.30
2019-02-14T02:55:04.771Z,0.20
2019-02-14T02:57:31.027Z,0.20
2019-02-14T02:59:57.310Z,0.20
2019-02-14T03:02:23.327Z,0.20
2019-02-14T03:04:49.335Z,0.20
2019-02-14T03:07:15.581Z,0.10
2019-02-14T03:09:41.618Z,0.20
2019-02-14T03:12:07.617Z,0.10
2019-02-14T03:14:33.634Z,0.10
2019-02-14T03:16:59.658Z,0.10
2019-02-14T03:19:25.670Z,0.10
2019-02-14T03:21:51.681Z,0.10
2019-02-14T03:24:17.695Z,0.10
2019-02-14T03:26:43.731Z,0.10
2019-02-14T03:29:09.957Z,0.00
2019-02-14T03:31:36.204Z,0.10
2019-02-14T03:34:02.211Z,0.00
2019-02-14T03:36:28.241Z,0.00
2019-02-14T03:38:54.251Z,0.00
2019-02-14T03:41:20.286Z,-0.20
2019-02-14T03:43:46.316Z,-0.10
2019-02-14T03:46:12.570Z,-0.10
2019-02-14T03:48:38.630Z,-0.10
2019-02-14T03:51:04.890Z,-0.20
2019-02-14T03:53:30.908Z,-0.20
2019-02-14T03:55:57.030Z,-0.20
2019-02-14T03:58:23.259Z,-0.20
2019-02-14T04:00:49.295Z,-0.30
2019-02-14T04:03:15.563Z,-0.20
2019-02-14T04:05:41.579Z,-0.30
2019-02-14T04:08:07.596Z,-0.30
2019-02-14T04:10:33.623Z,-0.30
2019-02-14T04:12:59.878Z,-0.30
2019-02-14T04:15:25.900Z,-0.30
2019-02-14T04:17:51.919Z,-0.30
2019-02-14T04:20:17.958Z,-0.30
2019-02-14T04:22:44.052Z,-0.30
2019-02-14T04:25:10.276Z,-0.30
2019-02-14T04:27:36.283Z,-0.30
2019-02-14T04:30:04.639Z,-0.30
2019-02-14T04:32:30.912Z,-0.30
2019-02-14T04:34:56.919Z,-0.20
2019-02-14T04:37:22.943Z,-0.30
2019-02-14T04:39:48.955Z,-0.20
2019-02-14T04:42:15.241Z,-0.30
2019-02-14T04:44:41.259Z,-0.30
2019-02-14T04:47:07.269Z,-0.30
2019-02-14T04:49:33.383Z,-0.40
2019-02-14T04:51:59.409Z,-0.40
2019-02-14T04:54:25.425Z,-0.40
2019-02-14T04:56:51.471Z,-0.40
2019-02-14T04:59:17.471Z,-0.40
2019-02-14T05:01:43.487Z,-0.40
2019-02-14T05:04:09.743Z,-0.50
2019-02-14T05:06:44.097Z,-0.50
2019-02-14T05:09:07.830Z,-0.50
2019-02-14T05:11:33.853Z,-0.50
2019-02-14T05:13:59.878Z,-0.60
2019-02-14T05:16:25.893Z,-0.60
2019-02-14T05:18:51.973Z,-0.60
2019-02-14T05:21:17.984Z,-0.70
2019-02-14T05:23:44.031Z,-0.80
2019-02-14T05:26:10.049Z,-0.90
2019-02-14T05:28:36.071Z,-0.80
2019-02-14T05:31:02.091Z,-0.80
2019-02-14T05:33:28.104Z,-0.70
2019-02-14T05:35:54.131Z,-0.90
2019-02-14T05:38:20.290Z,-0.90
2019-02-14T05:40:46.470Z,-0.90
2019-02-14T05:43:12.543Z,-0.90
2019-02-14T05:45:38.627Z,-0.90
2019-02-14T05:48:04.639Z,-0.80
2019-02-14T05:50:30.638Z,-0.90
2019-02-14T05:52:56.673Z,-0.90
2019-02-14T05:55:22.679Z,-0.80
2019-02-14T05:57:48.697Z,-0.80
2019-02-14T06:00:16.799Z,-0.80
2019-02-14T06:02:42.950Z,-0.90
2019-02-14T06:05:09.303Z,-0.90
2019-02-14T06:07:35.338Z,-1.00
2019-02-14T06:10:01.644Z,-1.00
2019-02-14T06:12:27.672Z,-1.10
2019-02-14T06:14:53.798Z,-1.00
2019-02-14T06:17:19.821Z,-1.10
2019-02-14T06:19:45.825Z,-1.00
2019-02-14T06:22:11.846Z,-1.00
2019-02-14T06:24:37.861Z,-1.10
2019-02-14T06:27:03.899Z,-1.10
2019-02-14T06:29:29.899Z,-1.00
2019-02-14T06:31:56.126Z,-1.00
2019-02-14T06:34:22.203Z,-0.90
2019-02-14T06:36:48.235Z,-0.90
2019-02-14T06:39:14.259Z,-0.90
2019-02-14T06:41:40.281Z,-0.90
2019-02-14T06:44:06.317Z,-0.90
2019-02-14T06:46:32.329Z,-0.90
2019-02-14T06:48:58.369Z,-1.00
2019-02-14T06:51:24.377Z,-1.10
2019-02-14T06:53:50.403Z,-1.10
2019-02-14T06:56:16.710Z,-1.00
2019-02-14T06:58:42.762Z,-0.90
2019-02-14T07:01:08.794Z,-0.90
2019-02-14T07:03:34.810Z,-0.80
2019-02-14T07:06:00.832Z,-0.70
2019-02-14T07:08:27.084Z,-0.40
2019-02-14T07:10:53.343Z,-0.10
2019-02-14T07:13:19.355Z,0.10
2019-02-14T07:15:45.387Z,0.10
2019-02-14T07:18:11.412Z,0.20
2019-02-14T07:20:37.482Z,0.50
2019-02-14T07:23:03.736Z,0.60
2019-02-14T07:25:29.754Z,1.40
2019-02-14T07:27:56.115Z,1.80
2019-02-14T07:30:23.926Z,1.70
2019-02-14T07:32:49.962Z,1.50
2019-02-14T07:35:16.249Z,1.10
2019-02-14T07:37:42.293Z,0.90
2019-02-14T07:40:10.617Z,0.90
2019-02-14T07:42:36.640Z,0.70
2019-02-14T07:45:05.591Z,0.70
2019-02-14T07:47:31.661Z,0.60
2019-02-14T07:49:57.679Z,0.60
2019-02-14T07:52:25.345Z,0.70
2019-02-14T07:54:51.518Z,0.80
2019-02-14T07:57:17.553Z,1.50
2019-02-14T07:59:43.823Z,1.70
2019-02-14T08:02:10.092Z,2.20
2019-02-14T08:04:36.107Z,3.30
2019-02-14T08:07:02.105Z,4.60
2019-02-14T08:09:28.127Z,6.10
2019-02-14T08:11:54.137Z,7.10
2019-02-14T08:14:20.163Z,8.70
2019-02-14T08:16:46.415Z,10.00
2019-02-14T08:19:12.678Z,10.70
2019-02-14T08:21:38.696Z,11.00
2019-02-14T08:24:04.716Z,11.50
2019-02-14T08:26:30.967Z,11.00
2019-02-14T08:28:57.317Z,10.50
2019-02-14T08:31:23.344Z,9.40
2019-02-14T08:33:49.367Z,9.10
2019-02-14T08:36:15.396Z,9.10
2019-02-14T08:38:41.447Z,8.50
2019-02-14T08:41:07.803Z,8.30
2019-02-14T08:43:33.927Z,8.00
2019-02-14T08:45:59.946Z,7.50
2019-02-14T08:48:25.963Z,7.20
2019-02-14T08:50:52.028Z,6.70
2019-02-14T08:53:18.094Z,6.40
2019-02-14T08:55:44.127Z,6.00
2019-02-14T08:58:10.173Z,5.70
2019-02-14T09:00:36.183Z,5.70
2019-02-14T09:03:02.431Z,5.60
2019-02-14T09:05:28.450Z,5.50
2019-02-14T09:07:55.165Z,5.30
2019-02-14T09:10:21.540Z,5.40
2019-02-14T09:12:47.548Z,5.40
2019-02-14T09:15:14.077Z,5.20
2019-02-14T09:17:40.346Z,5.10
2019-02-14T09:20:15.163Z,5.10
2019-02-14T09:22:41.231Z,5.20
2019-02-14T09:25:07.250Z,5.10
2019-02-14T09:27:33.267Z,5.20
2019-02-14T09:29:59.273Z,5.20
2019-02-14T09:32:25.398Z,5.30
2019-02-14T09:34:51.392Z,5.20
2019-02-14T09:37:17.404Z,5.10
2019-02-14T09:39:43.418Z,5.10
2019-02-14T09:42:09.436Z,5.10
2019-02-14T09:44:35.683Z,5.30
2019-02-14T09:47:01.750Z,5.40
2019-02-14T09:49:27.771Z,5.60
2019-02-14T09:51:53.778Z,5.70
2019-02-14T09:54:20.050Z,6.00
2019-02-14T09:56:46.401Z,6.20
2019-02-14T09:59:12.428Z,6.30
2019-02-14T10:01:38.441Z,6.50
2019-02-14T10:04:04.446Z,6.50
2019-02-14T10:06:36.450Z,6.80
2019-02-14T10:09:00.518Z,7.10
2019-02-14T10:11:26.342Z,7.30
2019-02-14T10:13:52.345Z,7.30
2019-02-14T10:16:18.434Z,7.40
2019-02-14T10:18:44.437Z,7.50
2019-02-14T10:21:10.675Z,7.60
2019-02-14T10:23:36.711Z,7.60
2019-02-14T10:26:02.721Z,7.90
2019-02-14T10:28:28.998Z,8.00
2019-02-14T10:30:55.007Z,8.30
2019-02-14T10:33:21.031Z,8.60
2019-02-14T10:35:47.316Z,8.80
2019-02-14T10:38:21.690Z,9.00
2019-02-14T10:40:41.338Z,9.10
2019-02-14T10:43:07.566Z,9.30
2019-02-14T10:45:33.578Z,9.30
2019-02-14T10:47:59.604Z,9.30
2019-02-14T10:50:25.647Z,9.20
2019-02-14T10:52:51.678Z,9.20
2019-02-14T10:55:17.697Z,9.20
2019-02-14T10:57:43.700Z,9.10
2019-02-14T11:00:18.775Z,8.90
2019-02-14T11:02:44.987Z,8.70
2019-02-14T11:05:12.728Z,8.50
2019-02-14T11:07:38.967Z,8.20
2019-02-14T11:10:08.575Z,7.90
2019-02-14T11:12:34.603Z,7.80
2019-02-14T11:15:00.620Z,7.90
2019-02-14T11:17:26.866Z,7.80
2019-02-14T11:19:52.867Z,7.90
2019-02-14T11:22:18.886Z,7.80
2019-02-14T11:24:44.900Z,7.80
2019-02-14T11:27:11.199Z,7.80
2019-02-14T11:29:37.201Z,7.90
2019-02-14T11:32:03.197Z,7.90
2019-02-14T11:34:29.205Z,7.80
2019-02-14T11:36:55.450Z,7.80
2019-02-14T11:39:21.479Z,8.00
2019-02-14T11:41:47.482Z,8.20
2019-02-14T11:44:13.504Z,8.50
2019-02-14T11:46:39.726Z,8.60
2019-02-14T11:49:05.739Z,8.70
2019-02-14T11:51:31.850Z,8.60
2019-02-14T11:53:57.874Z,8.60
2019-02-14T11:56:23.891Z,8.70
2019-02-14T11:58:50.130Z,8.90
2019-02-14T12:01:16.152Z,8.90
2019-02-14T12:03:42.219Z,9.10
2019-02-14T12:06:08.244Z,9.40
2019-02-14T12:08:34.274Z,9.50
2019-02-14T12:11:00.281Z,9.70
2019-02-14T12:13:26.312Z,10.10
2019-02-14T12:15:52.343Z,10.40
2019-02-14T12:18:18.360Z,10.40
2019-02-14T12:20:44.368Z,10.70
2019-02-14T12:23:10.390Z,10.70
2019-02-14T12:25:36.414Z,10.80
2019-02-14T12:28:02.424Z,10.90
2019-02-14T12:30:28.436Z,10.90
2019-02-14T12:32:54.465Z,10.90
2019-02-14T12:35:20.470Z,11.00
2019-02-14T12:37:46.715Z,11.10
2019-02-14T12:40:12.935Z,11.30
2019-02-14T12:42:38.971Z,11.30
2019-02-14T12:45:08.363Z,11.40
2019-02-14T12:47:34.374Z,11.40
2019-02-14T12:50:00.404Z,11.60
2019-02-14T12:52:26.445Z,11.80
2019-02-14T12:54:52.453Z,11.80
2019-02-14T12:57:18.485Z,11.80
2019-02-14T12:59:44.499Z,11.80
2019-02-14T13:02:10.516Z,11.80
2019-02-14T13:04:36.536Z,11.90
2019-02-14T13:07:02.550Z,12.10
2019-02-14T13:09:28.585Z,12.10
2019-02-14T13:11:54.823Z,12.00
2019-02-14T13:14:20.879Z,11.90
2019-02-14T13:16:46.990Z,11.70
2019-02-14T13:19:13.010Z,11.60
2019-02-14T13:21:39.030Z,11.40
2019-02-14T13:24:05.035Z,11.30
2019-02-14T13:26:31.154Z,11.10
2019-02-14T13:28:57.154Z,10.90
2019-02-14T13:31:31.607Z,10.60
2019-02-14T13:33:51.123Z,10.20
2019-02-14T13:36:17.141Z,10.00
2019-02-14T13:38:43.376Z,9.80
2019-02-14T13:41:09.394Z,9.60
2019-02-14T13:43:35.400Z,9.30
2019-02-14T13:46:01.426Z,9.10
2019-02-14T13:48:27.427Z,9.00
2019-02-14T13:50:53.449Z,9.00
2019-02-14T13:53:19.474Z,8.80
2019-02-14T13:55:45.731Z,8.70
2019-02-14T13:58:11.985Z,8.50
2019-02-14T14:00:38.006Z,8.40
2019-02-14T14:03:04.031Z,8.40
2019-02-14T14:05:30.046Z,8.30
2019-02-14T14:07:56.058Z,8.40
2019-02-14T14:10:22.064Z,8.40
2019-02-14T14:12:48.324Z,8.30
2019-02-14T14:15:14.399Z,8.40
2019-02-14T14:17:40.445Z,8.50
2019-02-14T14:20:07.506Z,8.50
2019-02-14T14:22:33.489Z,8.60
2019-02-14T14:24:59.511Z,8.60
2019-02-14T14:27:25.523Z,8.60
2019-02-14T14:29:51.643Z,8.50
2019-02-14T14:32:17.659Z,8.60
2019-02-14T14:34:43.680Z,8.70
2019-02-14T14:37:09.701Z,8.90
2019-02-14T14:39:35.714Z,8.80
2019-02-14T14:42:03.247Z,8.80
2019-02-14T14:44:31.266Z,8.90
2019-02-14T14:46:57.383Z,8.80
2019-02-14T14:49:23.392Z,8.70
2019-02-14T14:51:49.395Z,8.80
2019-02-14T14:54:15.435Z,8.70
2019-02-14T14:56:41.471Z,8.60
2019-02-14T14:59:07.547Z,8.60
2019-02-14T15:01:33.545Z,8.60
2019-02-14T15:03:59.567Z,8.50
2019-02-14T15:06:25.577Z,8.60
2019-02-14T15:08:51.597Z,8.50
2019-02-14T15:11:17.599Z,8.50
2019-02-14T15:13:43.609Z,8.50
2019-02-14T15:16:09.615Z,8.50
2019-02-14T15:18:35.626Z,8.50
2019-02-14T15:21:01.643Z,8.30
2019-02-14T15:23:27.671Z,8.30
2019-02-14T15:25:53.691Z,8.30
2019-02-14T15:28:19.827Z,8.20
2019-02-14T15:30:45.850Z,8.10
2019-02-14T15:33:11.868Z,8.10
2019-02-14T15:35:37.907Z,8.00
2019-02-14T15:38:03.919Z,8.00
2019-02-14T15:40:29.967Z,8.00
2019-02-14T15:42:56.055Z,7.90
2019-02-14T15:45:22.122Z,7.80
2019-02-14T15:47:48.127Z,7.70
2019-02-14T15:50:14.145Z,7.70
2019-02-14T15:52:40.259Z,7.60
2019-02-14T15:55:06.576Z,7.70
2019-02-14T15:57:32.583Z,8.00
2019-02-14T15:59:58.608Z,8.00
2019-02-14T16:02:24.607Z,8.10
2019-02-14T16:04:51.203Z,8.20
2019-02-14T16:07:18.528Z,8.00
2019-02-14T16:09:48.749Z,7.90
2019-02-14T16:12:14.742Z,7.60
2019-02-14T16:14:42.669Z,7.50
2019-02-14T16:17:13.118Z,7.30
2019-02-14T16:19:36.848Z,7.20
2019-02-14T16:22:02.858Z,7.00
2019-02-14T16:24:28.911Z,7.00
2019-02-14T16:26:55.265Z,6.90
2019-02-14T16:29:23.248Z,6.70
2019-02-14T16:31:49.658Z,6.70
2019-02-14T16:34:15.903Z,6.90
2019-02-14T16:36:41.927Z,7.00
2019-02-14T16:39:08.048Z,7.00
2019-02-14T16:41:34.066Z,6.80
2019-02-14T16:44:00.073Z,6.80
2019-02-14T16:46:26.327Z,6.70
2019-02-14T16:48:52.566Z,6.60
2019-02-14T16:51:18.829Z,6.50
2019-02-14T16:53:44.847Z,6.40
2019-02-14T16:56:11.109Z,6.30
2019-02-14T16:58:37.124Z,6.30
2019-02-14T17:01:03.159Z,6.10
2019-02-14T17:03:29.169Z,6.00
2019-02-14T17:05:55.405Z,5.80
2019-02-14T17:08:21.426Z,5.80
2019-02-14T17:10:47.688Z,5.80
2019-02-14T17:13:13.684Z,5.80
2019-02-14T17:15:39.927Z,5.80
2019-02-14T17:18:06.195Z,5.70
2019-02-14T17:20:32.240Z,5.80
2019-02-14T17:22:58.327Z,5.70
2019-02-14T17:25:24.361Z,5.70
2019-02-14T17:27:50.375Z,5.60
2019-02-14T17:30:16.450Z,5.50
2019-02-14T17:32:42.445Z,5.50
2019-02-14T17:35:08.770Z,5.30
2019-02-14T17:37:34.771Z,5.10
2019-02-14T17:40:00.875Z,5.00
2019-02-14T17:42:26.906Z,4.90
2019-02-14T17:44:52.917Z,4.90
2019-02-14T17:47:19.155Z,4.90
2019-02-14T17:49:45.326Z,4.90
2019-02-14T17:52:11.402Z,5.00
2019-02-14T17:54:37.773Z,5.00
2019-02-14T17:57:04.294Z,5.10
2019-02-14T17:59:30.294Z,5.20
2019-02-14T18:01:56.783Z,5.10
2019-02-14T18:04:22.790Z,5.00
2019-02-14T18:06:48.793Z,5.00
2019-02-14T18:09:14.811Z,5.00
2019-02-14T18:11:40.805Z,4.90
2019-02-14T18:14:07.182Z,4.90
2019-02-14T18:16:33.194Z,4.80
2019-02-14T18:18:59.202Z,4.60
2019-02-14T18:21:25.675Z,4.50
2019-02-14T18:23:51.679Z,4.30
2019-02-14T18:26:17.689Z,4.30
2019-02-14T18:28:44.031Z,4.40
2019-02-14T18:31:10.031Z,4.30
2019-02-14T18:33:36.050Z,4.30
2019-02-14T18:36:02.080Z,4.30
2019-02-14T18:38:30.228Z,4.20
2019-02-14T18:41:03.810Z,4.10
2019-02-14T18:43:24.378Z,4.10
2019-02-14T18:45:50.399Z,4.10
2019-02-14T18:48:16.429Z,4.20
2019-02-14T18:50:42.437Z,4.00
2019-02-14T18:53:08.687Z,3.90
2019-02-14T18:55:34.967Z,3.80
2019-02-14T18:58:01.271Z,3.80
2019-02-14T19:00:27.260Z,4.00
2019-02-14T19:02:53.310Z,4.10
2019-02-14T19:05:19.324Z,4.10
2019-02-14T19:07:45.339Z,4.10
2019-02-14T19:10:12.972Z,4.00
2019-02-14T19:12:38.994Z,3.70
2019-02-14T19:15:07.761Z,3.70
2019-02-14T19:17:33.880Z,3.60
2019-02-14T19:19:59.898Z,3.60
2019-02-14T19:22:25.938Z,3.50
2019-02-14T19:24:51.951Z,3.50
2019-02-14T19:27:17.963Z,3.50
2019-02-14T19:29:43.978Z,3.50
2019-02-14T19:32:10.016Z,3.50
2019-02-14T19:34:36.015Z,3.50
2019-02-14T19:37:02.275Z,3.60
2019-02-14T19:39:28.270Z,3.70
2019-02-14T19:41:54.299Z,4.00
2019-02-14T19:44:20.307Z,4.00
2019-02-14T19:46:46.330Z,3.80
2019-02-14T19:49:12.356Z,3.60
2019-02-14T19:51:38.383Z,3.50
2019-02-14T19:54:04.377Z,3.40
2019-02-14T19:56:30.652Z,3.30
2019-02-14T19:58:56.698Z,3.20
2019-02-14T20:01:22.813Z,3.10
2019-02-14T20:03:48.810Z,3.10
2019-02-14T20:06:14.809Z,3.10
2019-02-14T20:08:40.831Z,3.20
2019-02-14T20:11:06.835Z,3.00
2019-02-14T20:13:32.859Z,3.10
2019-02-14T20:15:59.102Z,3.10
2019-02-14T20:18:25.138Z,3.10
2019-02-14T20:20:51.130Z,3.20
2019-02-14T20:23:17.150Z,3.10
2019-02-14T20:25:43.167Z,3.00
2019-02-14T20:28:09.180Z,2.90
2019-02-14T20:30:35.183Z,2.90
2019-02-14T20:33:04.686Z,2.90
2019-02-14T20:35:29.126Z,2.90
2019-02-14T20:37:55.137Z,2.90
2019-02-14T20:40:21.146Z,3.00
2019-02-14T20:42:47.195Z,3.10
2019-02-14T20:45:13.411Z,2.90
2019-02-14T20:47:39.423Z,2.90
2019-02-14T20:50:11.086Z,2.80
2019-02-14T20:52:37.085Z,2.80
2019-02-14T20:55:06.511Z,2.90
2019-02-14T20:57:32.515Z,3.00
2019-02-14T20:59:58.556Z,2.90
2019-02-14T21:02:24.655Z,2.80
2019-02-14T21:04:50.727Z,2.70
2019-02-14T21:07:16.748Z,2.70
2019-02-14T21:09:42.824Z,2.60
2019-02-14T21:12:08.871Z,2.60
2019-02-14T21:14:34.897Z,2.60
2019-02-14T21:17:00.913Z,2.60
2019-02-14T21:19:26.933Z,2.60
2019-02-14T21:21:53.191Z,2.60
2019-02-14T21:24:19.222Z,2.60
2019-02-14T21:26:45.249Z,2.50
2019-02-14T21:29:11.255Z,2.60
2019-02-14T21:31:37.299Z,2.50
2019-02-14T21:34:03.497Z,2.50
2019-02-14T21:36:29.730Z,2.50
2019-02-14T21:38:55.967Z,2.60
2019-02-14T21:41:21.989Z,2.60
2019-02-14T21:43:48.092Z,2.60
2019-02-14T21:46:14.354Z,2.60
2019-02-14T21:48:40.364Z,2.60
2019-02-14T21:51:06.374Z,2.50
2019-02-14T21:53:32.394Z,2.50
2019-02-14T21:55:58.407Z,2.50
2019-02-14T21:58:24.426Z,2.50
2019-02-14T22:00:50.437Z,2.40
2019-02-14T22:03:16.454Z,2.50
2019-02-14T22:05:42.467Z,2.60
2019-02-14T22:08:08.620Z,2.60
2019-02-14T22:10:34.703Z,2.50
2019-02-14T22:13:00.727Z,2.50
2019-02-14T22:15:27.752Z,2.50
2019-02-14T22:17:53.859Z,2.40
2019-02-14T22:20:19.872Z,2.50
2019-02-14T22:22:46.099Z,2.40
2019-02-14T22:25:12.370Z,2.40
2019-02-14T22:27:38.358Z,2.50
2019-02-14T22:30:08.978Z,2.40
2019-02-14T22:32:34.983Z,2.30
2019-02-14T22:35:01.006Z,2.30
2019-02-14T22:37:27.015Z,2.30
2019-02-14T22:39:53.040Z,2.30
2019-02-14T22:42:19.059Z,2.40
2019-02-14T22:44:45.333Z,2.50
2019-02-14T22:47:11.326Z,2.50
2019-02-14T22:49:37.359Z,2.50
2019-02-14T22:52:03.365Z,2.50
2019-02-14T22:54:29.382Z,2.50
2019-02-14T22:56:55.635Z,2.50
2019-02-14T22:59:21.654Z,2.50
2019-02-14T23:01:47.657Z,2.40
2019-02-14T23:04:13.674Z,2.30
2019-02-14T23:06:39.681Z,2.30
2019-02-14T23:09:06.603Z,2.30
2019-02-14T23:11:32.620Z,2.20
2019-02-14T23:13:58.657Z,2.20
2019-02-14T23:16:24.664Z,2.20
2019-02-14T23:18:50.663Z,2.10
2019-02-14T23:21:16.691Z,2.10
2019-02-14T23:23:42.699Z,2.10
2019-02-14T23:26:08.975Z,2.00
2019-02-14T23:28:35.419Z,1.90
2019-02-14T23:31:01.427Z,2.00
2019-02-14T23:33:27.435Z,1.90
2019-02-14T23:35:54.279Z,1.90
2019-02-14T23:38:20.526Z,2.00
2019-02-14T23:40:46.551Z,2.10
2019-02-14T23:43:12.554Z,2.10
2019-02-14T23:45:38.555Z,2.10
2019-02-14T23:48:04.807Z,2.10
2019-02-14T23:50:31.047Z,2.00
2019-02-14T23:52:57.071Z,2.20
2019-02-14T23:55:23.304Z,2.10
2019-02-14T23:57:49.330Z,2.10
